Agana Heights, GU

5:34 AM ChST on October 22, 2014 (GMT +1000)
Rota I International | Change Station
CLOSE
Current Station
Airport
Location: Rota,
Elevation: 607 ft
Nearby Weather Stations

Elev 607 ft 14.17 °N, 145.24 °E | Updated 9 hours ago

Rain
Rain
79 °F
Feels Like 79 °F
N
4
Wind Variable Wind from ESE
Gusts 5 mph

Today
High -- | Low -- °F
--% Chance of Precip.
Yesterday
High -- | Low -- °F
Precip. -- in
6:12 AM 5:58 PM
Waning Crescent, 4% visible
Pressure 29.84 in
Visibility 7.0 miles
Clouds Few 2500 ft
Dew Point 73 °F
Humidity 81%
Rainfall 0.00 in
Snow Depth Not available.
UV 0 out of 12
Pollen Not available.
Air Quality Not available.
Flu Activity Widespread
METAR PGRO 210950Z 06003KT 7SM FEW025 26/23 A2984 RMK LAST

More Conditions Fewer Conditions

Pressure 29.84 in
Visibility 7.0 miles
Clouds Few 2500 ft
Dew Point 73 °F
Humidity 81%
Rainfall 0.00 in
Snow Depth Not available.
UV 0 out of 12
Pollen Not available.
Air Quality Not available.
Flu Activity Widespread
METAR PGRO 210950Z 06003KT 7SM FEW025 26/23 A2984 RMK LAST

More Conditions Fewer Conditions

10-Day Weather Forecast

Almanac

Astronomy

Oct. 22, 2014 Rise Set
Actual Time 6:12 AM ChST 5:58 PM ChST
Civil Twilight 5:51 AM ChST 6:19 PM ChST
Nautical Twilight 5:26 AM ChST 6:44 PM ChST
Astronomical Twilight 5:01 AM ChST 7:09 PM ChST
Moon 4:35 AM ChST (10/22) 4:49 PM ChST (10/22)
Length of Visible Light 12h 28m
Length of Day
11h 45m
Tomorrow will be 0m 41s shorter.
Waning Crescent, 4% of the Moon is Illuminated
Oct 21
Waning Crescent
Oct 23
New
Oct 30
First Quarter
Nov 6
Full
Nov 14
Last Quarter

Community

WunderPhotos

Upload Photos

1,763,755 photos uploaded!

WunderBlogs® & News

Nearby

Snow Depth

Station Depth Elevation
No new snow has been reported.

Earthquake Activity

City Distance Mag. Time & Date
No recent earthquake activity has been reported nearby.
Minimum magnitude displayed is 2.5.

Coastal Water Temperatures

Place Temperature
No Stations Reporting

Nearby Weather Stations